sensor_id;sensor_type;location;lat;lon;timestamp;pressure;altitude;pressure_sealevel;temperature;humidity
36192;BME280;22233;42.708;23.360;2023-05-09T00:02:09;95716.25;;;15.38;69.59
36192;BME280;22233;42.708;23.360;2023-05-09T00:04:34;95718.56;;;15.48;69.43
36192;BME280;22233;42.708;23.360;2023-05-09T00:07:00;95716.09;;;15.55;69.34
36192;BME280;22233;42.708;23.360;2023-05-09T00:09:26;95707.59;;;15.48;69.24
36192;BME280;22233;42.708;23.360;2023-05-09T00:11:51;95709.69;;;15.51;69.20
36192;BME280;22233;42.708;23.360;2023-05-09T00:14:17;95706.72;;;15.56;69.63
36192;BME280;22233;42.708;23.360;2023-05-09T00:16:43;95712.56;;;15.67;69.42
36192;BME280;22233;42.708;23.360;2023-05-09T00:19:09;95710.59;;;15.55;69.81
36192;BME280;22233;42.708;23.360;2023-05-09T00:21:34;95710.72;;;15.59;69.04
36192;BME280;22233;42.708;23.360;2023-05-09T00:24:00;95707.19;;;15.58;69.56
36192;BME280;22233;42.708;23.360;2023-05-09T00:26:26;95701.25;;;15.56;69.28
36192;BME280;22233;42.708;23.360;2023-05-09T00:28:51;95695.78;;;15.23;70.37
36192;BME280;22233;42.708;23.360;2023-05-09T00:31:17;95692.91;;;15.20;70.66
36192;BME280;22233;42.708;23.360;2023-05-09T00:33:42;95693.44;;;15.13;70.92
36192;BME280;22233;42.708;23.360;2023-05-09T00:36:07;95688.88;;;15.38;70.65
36192;BME280;22233;42.708;23.360;2023-05-09T00:38:33;95695.19;;;15.17;71.66
36192;BME280;22233;42.708;23.360;2023-05-09T00:40:58;95695.81;;;15.35;71.77
36192;BME280;22233;42.708;23.360;2023-05-09T00:43:24;95700.00;;;15.33;71.39
36192;BME280;22233;42.708;23.360;2023-05-09T00:45:49;95694.06;;;15.31;71.10
36192;BME280;22233;42.708;23.360;2023-05-09T00:48:15;95681.78;;;15.37;70.38
36192;BME280;22233;42.708;23.360;2023-05-09T00:50:41;95699.06;;;15.50;70.96
36192;BME280;22233;42.708;23.360;2023-05-09T00:53:08;95694.06;;;15.64;70.38
36192;BME280;22233;42.708;23.360;2023-05-09T00:55:33;95689.69;;;15.51;70.65
36192;BME280;22233;42.708;23.360;2023-05-09T00:57:59;95682.56;;;15.71;69.19
36192;BME280;22233;42.708;23.360;2023-05-09T01:00:24;95688.72;;;15.68;68.55
36192;BME280;22233;42.708;23.360;2023-05-09T01:02:52;95676.44;;;15.41;69.50
36192;BME280;22233;42.708;23.360;2023-05-09T01:05:18;95677.00;;;15.34;69.50
36192;BME280;22233;42.708;23.360;2023-05-09T01:07:53;95674.22;;;15.22;69.96
36192;BME280;22233;42.708;23.360;2023-05-09T01:10:42;95684.06;;;15.35;69.85
36192;BME280;22233;42.708;23.360;2023-05-09T01:13:40;95684.44;;;15.46;69.64
36192;BME280;22233;42.708;23.360;2023-05-09T01:16:30;95682.09;;;15.02;70.50
36192;BME280;22233;42.708;23.360;2023-05-09T01:19:24;95666.63;;;15.06;70.38
36192;BME280;22233;42.708;23.360;2023-05-09T01:21:52;95679.28;;;15.11;70.29
36192;BME280;22233;42.708;23.360;2023-05-09T01:24:43;95690.44;;;15.39;69.36
36192;BME280;22233;42.708;23.360;2023-05-09T01:29:46;95689.47;;;15.23;70.32
36192;BME280;22233;42.708;23.360;2023-05-09T01:32:23;95681.91;;;15.07;70.13
36192;BME280;22233;42.708;23.360;2023-05-09T01:34:51;95695.13;;;15.38;69.56
36192;BME280;22233;42.708;23.360;2023-05-09T01:37:23;95695.72;;;15.44;68.88
36192;BME280;22233;42.708;23.360;2023-05-09T01:39:52;95684.91;;;15.48;69.14
36192;BME280;22233;42.708;23.360;2023-05-09T01:42:19;95681.03;;;15.49;69.40
36192;BME280;22233;42.708;23.360;2023-05-09T01:44:45;95692.06;;;15.73;68.58
36192;BME280;22233;42.708;23.360;2023-05-09T01:47:11;95686.06;;;15.59;67.94
36192;BME280;22233;42.708;23.360;2023-05-09T01:49:41;95697.88;;;15.72;67.45
36192;BME280;22233;42.708;23.360;2023-05-09T01:52:10;95687.34;;;15.62;68.38
36192;BME280;22233;42.708;23.360;2023-05-09T01:54:36;95668.75;;;15.67;67.56
36192;BME280;22233;42.708;23.360;2023-05-09T01:57:05;95690.72;;;15.80;67.94
36192;BME280;22233;42.708;23.360;2023-05-09T01:59:32;95703.28;;;15.93;67.68
36192;BME280;22233;42.708;23.360;2023-05-09T02:02:00;95696.31;;;15.83;67.49
36192;BME280;22233;42.708;23.360;2023-05-09T02:04:27;95702.38;;;15.89;67.39
36192;BME280;22233;42.708;23.360;2023-05-09T02:06:53;95696.44;;;15.99;67.13
36192;BME280;22233;42.708;23.360;2023-05-09T02:09:20;95699.97;;;16.00;66.86
36192;BME280;22233;42.708;23.360;2023-05-09T02:11:46;95715.28;;;16.01;66.73
36192;BME280;22233;42.708;23.360;2023-05-09T02:14:12;95697.69;;;15.89;67.23
36192;BME280;22233;42.708;23.360;2023-05-09T02:16:38;95701.00;;;15.95;67.19
36192;BME280;22233;42.708;23.360;2023-05-09T02:19:04;95694.94;;;15.89;66.12
36192;BME280;22233;42.708;23.360;2023-05-09T02:21:29;95683.84;;;15.73;67.09
36192;BME280;22233;42.708;23.360;2023-05-09T02:23:56;95695.63;;;15.74;67.17
36192;BME280;22233;42.708;23.360;2023-05-09T02:26:22;95688.38;;;15.69;66.84
36192;BME280;22233;42.708;23.360;2023-05-09T02:28:49;95693.78;;;15.45;67.85
36192;BME280;22233;42.708;23.360;2023-05-09T02:31:18;95680.88;;;15.45;68.42
36192;BME280;22233;42.708;23.360;2023-05-09T02:33:45;95689.44;;;15.77;67.61
36192;BME280;22233;42.708;23.360;2023-05-09T02:36:13;95702.34;;;15.76;67.23
36192;BME280;22233;42.708;23.360;2023-05-09T02:38:40;95688.00;;;15.80;67.83
36192;BME280;22233;42.708;23.360;2023-05-09T02:41:06;95694.72;;;15.82;68.04
36192;BME280;22233;42.708;23.360;2023-05-09T02:43:31;95692.78;;;15.83;67.53
36192;BME280;22233;42.708;23.360;2023-05-09T02:45:57;95695.06;;;15.81;66.80
36192;BME280;22233;42.708;23.360;2023-05-09T02:48:22;95696.47;;;15.66;67.88
36192;BME280;22233;42.708;23.360;2023-05-09T02:50:48;95700.22;;;15.61;68.17
36192;BME280;22233;42.708;23.360;2023-05-09T02:53:13;95701.72;;;15.71;68.22
36192;BME280;22233;42.708;23.360;2023-05-09T02:55:39;95702.75;;;15.33;69.07
36192;BME280;22233;42.708;23.360;2023-05-09T02:58:04;95691.44;;;15.55;68.37
36192;BME280;22233;42.708;23.360;2023-05-09T03:00:30;95708.19;;;15.54;68.58
36192;BME280;22233;42.708;23.360;2023-05-09T03:02:56;95703.06;;;15.52;68.82
36192;BME280;22233;42.708;23.360;2023-05-09T03:05:21;95699.94;;;15.42;68.86
36192;BME280;22233;42.708;23.360;2023-05-09T03:07:47;95692.16;;;15.31;69.46
36192;BME280;22233;42.708;23.360;2023-05-09T03:10:13;95712.44;;;15.30;69.87
36192;BME280;22233;42.708;23.360;2023-05-09T03:12:38;95727.38;;;15.33;70.16
36192;BME280;22233;42.708;23.360;2023-05-09T03:15:05;95711.13;;;15.15;70.75
36192;BME280;22233;42.708;23.360;2023-05-09T03:17:31;95725.47;;;15.33;70.29
36192;BME280;22233;42.708;23.360;2023-05-09T03:19:57;95728.53;;;15.32;70.12
36192;BME280;22233;42.708;23.360;2023-05-09T03:22:22;95732.06;;;15.32;70.24
36192;BME280;22233;42.708;23.360;2023-05-09T03:24:48;95727.59;;;15.28;70.69
36192;BME280;22233;42.708;23.360;2023-05-09T03:27:13;95741.09;;;15.12;71.28
36192;BME280;22233;42.708;23.360;2023-05-09T03:29:38;95732.81;;;15.00;71.29
36192;BME280;22233;42.708;23.360;2023-05-09T03:32:04;95749.75;;;15.14;71.22
36192;BME280;22233;42.708;23.360;2023-05-09T03:34:29;95758.03;;;15.26;70.80
36192;BME280;22233;42.708;23.360;2023-05-09T03:36:55;95729.28;;;14.99;70.73
36192;BME280;22233;42.708;23.360;2023-05-09T03:39:21;95763.78;;;15.12;71.15
36192;BME280;22233;42.708;23.360;2023-05-09T03:41:47;95760.03;;;14.96;71.34
36192;BME280;22233;42.708;23.360;2023-05-09T03:44:13;95764.84;;;14.99;71.63
36192;BME280;22233;42.708;23.360;2023-05-09T03:46:38;95759.50;;;15.03;71.62
36192;BME280;22233;42.708;23.360;2023-05-09T03:49:04;95744.47;;;15.09;71.56
36192;BME280;22233;42.708;23.360;2023-05-09T03:51:29;95760.09;;;15.08;71.30
36192;BME280;22233;42.708;23.360;2023-05-09T03:53:55;95761.03;;;14.91;71.84
36192;BME280;22233;42.708;23.360;2023-05-09T03:56:20;95748.09;;;14.41;72.38
36192;BME280;22233;42.708;23.360;2023-05-09T03:58:46;95747.41;;;14.83;71.47
36192;BME280;22233;42.708;23.360;2023-05-09T04:01:13;95741.94;;;14.83;71.18
36192;BME280;22233;42.708;23.360;2023-05-09T04:03:38;95743.47;;;14.92;70.80
36192;BME280;22233;42.708;23.360;2023-05-09T04:06:04;95748.94;;;14.92;71.27
36192;BME280;22233;42.708;23.360;2023-05-09T04:08:31;95757.63;;;14.65;71.50
36192;BME280;22233;42.708;23.360;2023-05-09T04:10:56;95754.56;;;14.66;71.43
36192;BME280;22233;42.708;23.360;2023-05-09T04:13:22;95759.00;;;14.80;71.49
36192;BME280;22233;42.708;23.360;2023-05-09T04:15:47;95774.41;;;14.84;71.14
36192;BME280;22233;42.708;23.360;2023-05-09T04:18:13;95765.81;;;14.73;71.40
36192;BME280;22233;42.708;23.360;2023-05-09T04:20:38;95758.63;;;14.90;70.84
36192;BME280;22233;42.708;23.360;2023-05-09T04:23:04;95769.25;;;14.91;70.94
36192;BME280;22233;42.708;23.360;2023-05-09T04:25:30;95761.13;;;14.74;70.84
36192;BME280;22233;42.708;23.360;2023-05-09T04:27:56;95767.38;;;14.45;72.07
36192;BME280;22233;42.708;23.360;2023-05-09T04:30:22;95754.91;;;14.65;71.29
36192;BME280;22233;42.708;23.360;2023-05-09T04:32:47;95770.25;;;14.48;71.58
36192;BME280;22233;42.708;23.360;2023-05-09T04:35:14;95745.66;;;14.57;71.17
36192;BME280;22233;42.708;23.360;2023-05-09T04:37:39;95774.47;;;14.75;71.24
36192;BME280;22233;42.708;23.360;2023-05-09T04:40:05;95772.06;;;14.74;71.26
36192;BME280;22233;42.708;23.360;2023-05-09T04:42:32;95778.81;;;14.76;71.00
36192;BME280;22233;42.708;23.360;2023-05-09T04:44:58;95770.66;;;14.68;70.32
36192;BME280;22233;42.708;23.360;2023-05-09T04:47:24;95781.22;;;14.78;70.44
36192;BME280;22233;42.708;23.360;2023-05-09T04:49:49;95766.94;;;14.72;70.09
36192;BME280;22233;42.708;23.360;2023-05-09T04:52:15;95748.63;;;14.64;70.33
36192;BME280;22233;42.708;23.360;2023-05-09T04:54:40;95776.28;;;14.71;70.80
36192;BME280;22233;42.708;23.360;2023-05-09T04:57:06;95762.16;;;14.90;69.95
36192;BME280;22233;42.708;23.360;2023-05-09T04:59:31;95760.69;;;14.93;70.46
36192;BME280;22233;42.708;23.360;2023-05-09T05:01:57;95764.56;;;14.92;70.21
36192;BME280;22233;42.708;23.360;2023-05-09T05:04:22;95765.09;;;15.06;70.22
36192;BME280;22233;42.708;23.360;2023-05-09T05:06:48;95768.53;;;15.03;70.13
36192;BME280;22233;42.708;23.360;2023-05-09T05:09:13;95758.25;;;14.70;70.65
36192;BME280;22233;42.708;23.360;2023-05-09T05:11:39;95751.69;;;14.92;69.84
36192;BME280;22233;42.708;23.360;2023-05-09T05:14:04;95761.34;;;14.90;70.23
36192;BME280;22233;42.708;23.360;2023-05-09T05:16:29;95763.88;;;14.95;70.35
36192;BME280;22233;42.708;23.360;2023-05-09T05:18:55;95762.50;;;15.10;70.08
36192;BME280;22233;42.708;23.360;2023-05-09T05:21:20;95775.19;;;15.14;68.81
36192;BME280;22233;42.708;23.360;2023-05-09T05:23:46;95769.47;;;15.07;68.78
36192;BME280;22233;42.708;23.360;2023-05-09T05:26:11;95760.97;;;15.00;68.79
36192;BME280;22233;42.708;23.360;2023-05-09T05:28:37;95777.84;;;15.02;69.05
36192;BME280;22233;42.708;23.360;2023-05-09T05:31:02;95767.47;;;14.66;69.85
36192;BME280;22233;42.708;23.360;2023-05-09T05:33:28;95771.75;;;14.96;69.33
36192;BME280;22233;42.708;23.360;2023-05-09T05:35:53;95748.59;;;14.73;68.89
36192;BME280;22233;42.708;23.360;2023-05-09T05:38:19;95774.16;;;14.77;69.54
36192;BME280;22233;42.708;23.360;2023-05-09T05:40:44;95781.13;;;14.95;68.91
36192;BME280;22233;42.708;23.360;2023-05-09T05:43:10;95778.16;;;15.01;69.21
36192;BME280;22233;42.708;23.360;2023-05-09T05:45:35;95766.59;;;14.74;69.71
36192;BME280;22233;42.708;23.360;2023-05-09T05:48:00;95786.13;;;15.14;68.84
36192;BME280;22233;42.708;23.360;2023-05-09T05:50:26;95777.38;;;15.00;68.96
36192;BME280;22233;42.708;23.360;2023-05-09T05:52:52;95771.31;;;15.15;68.31
36192;BME280;22233;42.708;23.360;2023-05-09T05:55:18;95783.00;;;15.04;68.42
36192;BME280;22233;42.708;23.360;2023-05-09T05:57:43;95771.06;;;15.29;68.01
36192;BME280;22233;42.708;23.360;2023-05-09T06:00:09;95770.06;;;15.34;67.38
36192;BME280;22233;42.708;23.360;2023-05-09T06:02:36;95784.19;;;15.36;66.00
36192;BME280;22233;42.708;23.360;2023-05-09T06:05:02;95758.00;;;15.47;65.88
36192;BME280;22233;42.708;23.360;2023-05-09T06:07:28;95783.97;;;15.62;66.06
36192;BME280;22233;42.708;23.360;2023-05-09T06:09:53;95775.19;;;15.77;65.68
36192;BME280;22233;42.708;23.360;2023-05-09T06:12:19;95787.72;;;15.78;65.07
36192;BME280;22233;42.708;23.360;2023-05-09T06:14:45;95780.31;;;15.91;63.72
36192;BME280;22233;42.708;23.360;2023-05-09T06:17:10;95774.56;;;15.72;64.42
36192;BME280;22233;42.708;23.360;2023-05-09T06:19:35;95768.25;;;15.71;64.47
36192;BME280;22233;42.708;23.360;2023-05-09T06:22:01;95787.66;;;16.00;64.30
36192;BME280;22233;42.708;23.360;2023-05-09T06:24:27;95774.97;;;15.62;64.87
36192;BME280;22233;42.708;23.360;2023-05-09T06:26:52;95748.94;;;15.55;64.29
36192;BME280;22233;42.708;23.360;2023-05-09T06:29:18;95766.41;;;15.84;64.42
36192;BME280;22233;42.708;23.360;2023-05-09T06:31:43;95767.56;;;15.95;64.77
36192;BME280;22233;42.708;23.360;2023-05-09T06:34:09;95765.78;;;16.12;64.20
36192;BME280;22233;42.708;23.360;2023-05-09T06:36:34;95769.22;;;16.21;63.27
36192;BME280;22233;42.708;23.360;2023-05-09T06:39:00;95782.03;;;16.42;62.16
36192;BME280;22233;42.708;23.360;2023-05-09T06:41:25;95779.50;;;16.24;63.04
36192;BME280;22233;42.708;23.360;2023-05-09T06:43:51;95780.91;;;16.55;62.92
36192;BME280;22233;42.708;23.360;2023-05-09T06:46:17;95777.69;;;16.53;61.79
36192;BME280;22233;42.708;23.360;2023-05-09T06:48:42;95781.03;;;16.46;62.16
36192;BME280;22233;42.708;23.360;2023-05-09T06:51:08;95783.97;;;16.66;61.56
36192;BME280;22233;42.708;23.360;2023-05-09T06:53:33;95770.50;;;16.36;62.80
36192;BME280;22233;42.708;23.360;2023-05-09T06:55:59;95776.53;;;16.42;62.23
36192;BME280;22233;42.708;23.360;2023-05-09T06:58:25;95764.66;;;16.37;62.25
36192;BME280;22233;42.708;23.360;2023-05-09T07:00:52;95766.53;;;16.58;63.01
36192;BME280;22233;42.708;23.360;2023-05-09T07:03:17;95772.78;;;16.71;61.98
36192;BME280;22233;42.708;23.360;2023-05-09T07:05:43;95766.53;;;16.58;61.22
36192;BME280;22233;42.708;23.360;2023-05-09T07:08:08;95771.63;;;16.72;61.72
36192;BME280;22233;42.708;23.360;2023-05-09T07:10:34;95765.25;;;16.55;61.52
36192;BME280;22233;42.708;23.360;2023-05-09T07:12:59;95771.09;;;16.66;61.49
36192;BME280;22233;42.708;23.360;2023-05-09T07:15:25;95761.81;;;16.46;62.27
36192;BME280;22233;42.708;23.360;2023-05-09T07:17:50;95755.53;;;16.70;60.92
36192;BME280;22233;42.708;23.360;2023-05-09T07:20:17;95762.97;;;16.45;62.04
36192;BME280;22233;42.708;23.360;2023-05-09T07:22:42;95774.53;;;16.05;63.41
36192;BME280;22233;42.708;23.360;2023-05-09T07:25:08;95772.09;;;16.37;62.32
36192;BME280;22233;42.708;23.360;2023-05-09T07:27:34;95767.38;;;16.13;62.53
36192;BME280;22233;42.708;23.360;2023-05-09T07:30:00;95768.44;;;16.33;61.59
36192;BME280;22233;42.708;23.360;2023-05-09T07:32:25;95767.53;;;16.41;61.38
36192;BME280;22233;42.708;23.360;2023-05-09T07:34:54;95766.97;;;16.72;60.30
36192;BME280;22233;42.708;23.360;2023-05-09T07:37:19;95763.06;;;16.73;60.97
36192;BME280;22233;42.708;23.360;2023-05-09T07:39:45;95780.78;;;16.76;60.34
36192;BME280;22233;42.708;23.360;2023-05-09T07:42:12;95759.06;;;16.71;60.14
36192;BME280;22233;42.708;23.360;2023-05-09T07:44:37;95773.81;;;16.66;60.16
36192;BME280;22233;42.708;23.360;2023-05-09T07:47:03;95781.47;;;16.36;60.63
36192;BME280;22233;42.708;23.360;2023-05-09T07:49:32;95772.22;;;16.41;60.69
36192;BME280;22233;42.708;23.360;2023-05-09T07:51:57;95760.78;;;16.26;61.00
36192;BME280;22233;42.708;23.360;2023-05-09T07:54:23;95766.34;;;16.17;62.27
36192;BME280;22233;42.708;23.360;2023-05-09T07:56:48;95768.56;;;16.36;61.06
36192;BME280;22233;42.708;23.360;2023-05-09T07:59:13;95782.63;;;16.02;62.75
36192;BME280;22233;42.708;23.360;2023-05-09T08:01:39;95781.56;;;16.40;61.26
36192;BME280;22233;42.708;23.360;2023-05-09T08:04:05;95760.19;;;16.08;62.55
36192;BME280;22233;42.708;23.360;2023-05-09T08:06:33;95773.00;;;16.41;61.68
36192;BME280;22233;42.708;23.360;2023-05-09T08:08:59;95772.31;;;16.32;62.30
36192;BME280;22233;42.708;23.360;2023-05-09T08:11:24;95775.38;;;16.18;62.72
36192;BME280;22233;42.708;23.360;2023-05-09T08:13:49;95776.53;;;16.29;61.68
36192;BME280;22233;42.708;23.360;2023-05-09T08:16:15;95780.19;;;16.46;61.77
36192;BME280;22233;42.708;23.360;2023-05-09T08:18:42;95771.38;;;16.28;61.83
36192;BME280;22233;42.708;23.360;2023-05-09T08:21:07;95781.22;;;16.53;61.65
36192;BME280;22233;42.708;23.360;2023-05-09T08:23:33;95781.81;;;16.59;61.21
36192;BME280;22233;42.708;23.360;2023-05-09T08:25:58;95783.41;;;16.48;61.18
36192;BME280;22233;42.708;23.360;2023-05-09T08:28:23;95781.56;;;16.52;60.46
36192;BME280;22233;42.708;23.360;2023-05-09T08:30:50;95778.63;;;16.57;60.85
36192;BME280;22233;42.708;23.360;2023-05-09T08:33:16;95782.59;;;16.47;60.44
36192;BME280;22233;42.708;23.360;2023-05-09T08:35:41;95778.75;;;16.61;59.96
36192;BME280;22233;42.708;23.360;2023-05-09T08:38:06;95775.75;;;16.29;59.77
36192;BME280;22233;42.708;23.360;2023-05-09T08:40:35;95783.19;;;16.41;59.92
36192;BME280;22233;42.708;23.360;2023-05-09T08:43:02;95771.03;;;16.29;60.38
36192;BME280;22233;42.708;23.360;2023-05-09T08:45:30;95787.50;;;16.42;59.80
36192;BME280;22233;42.708;23.360;2023-05-09T08:47:58;95784.56;;;16.71;59.60
36192;BME280;22233;42.708;23.360;2023-05-09T08:50:27;95781.94;;;16.63;58.91
36192;BME280;22233;42.708;23.360;2023-05-09T08:52:52;95769.81;;;16.51;58.96
36192;BME280;22233;42.708;23.360;2023-05-09T08:55:18;95779.75;;;16.44;59.00
36192;BME280;22233;42.708;23.360;2023-05-09T08:57:44;95785.13;;;16.65;58.83
36192;BME280;22233;42.708;23.360;2023-05-09T09:00:11;95769.25;;;16.70;57.91
36192;BME280;22233;42.708;23.360;2023-05-09T09:02:40;95763.00;;;16.82;57.85
36192;BME280;22233;42.708;23.360;2023-05-09T09:05:06;95768.22;;;17.00;57.84
36192;BME280;22233;42.708;23.360;2023-05-09T09:07:33;95763.63;;;17.04;56.81
36192;BME280;22233;42.708;23.360;2023-05-09T09:09:59;95763.53;;;16.88;57.29
36192;BME280;22233;42.708;23.360;2023-05-09T09:12:27;95776.88;;;17.14;57.54
36192;BME280;22233;42.708;23.360;2023-05-09T09:14:54;95764.41;;;17.04;56.02
36192;BME280;22233;42.708;23.360;2023-05-09T09:17:23;95771.09;;;16.91;58.17
36192;BME280;22233;42.708;23.360;2023-05-09T09:19:54;95779.53;;;16.98;57.02
36192;BME280;22233;42.708;23.360;2023-05-09T09:22:20;95776.72;;;17.35;56.18
36192;BME280;22233;42.708;23.360;2023-05-09T09:24:46;95779.03;;;17.33;55.50
36192;BME280;22233;42.708;23.360;2023-05-09T09:27:12;95771.81;;;17.28;56.73
36192;BME280;22233;42.708;23.360;2023-05-09T09:29:37;95770.56;;;17.26;56.51
36192;BME280;22233;42.708;23.360;2023-05-09T09:32:04;95771.09;;;16.91;56.56
36192;BME280;22233;42.708;23.360;2023-05-09T09:34:30;95778.81;;;17.13;56.38
36192;BME280;22233;42.708;23.360;2023-05-09T09:36:57;95776.50;;;17.28;56.66
36192;BME280;22233;42.708;23.360;2023-05-09T09:39:22;95770.03;;;17.76;55.85
36192;BME280;22233;42.708;23.360;2023-05-09T09:41:47;95768.41;;;17.88;56.57
36192;BME280;22233;42.708;23.360;2023-05-09T09:44:18;95761.66;;;17.29;58.02
36192;BME280;22233;42.708;23.360;2023-05-09T09:46:44;95762.50;;;17.45;58.33
36192;BME280;22233;42.708;23.360;2023-05-09T09:49:14;95757.34;;;17.72;56.91
36192;BME280;22233;42.708;23.360;2023-05-09T09:51:40;95761.88;;;17.92;56.49
36192;BME280;22233;42.708;23.360;2023-05-09T09:54:07;95754.88;;;17.95;56.17
36192;BME280;22233;42.708;23.360;2023-05-09T09:56:47;95754.44;;;17.81;56.49
36192;BME280;22233;42.708;23.360;2023-05-09T09:59:15;95754.06;;;17.94;56.39
36192;BME280;22233;42.708;23.360;2023-05-09T10:02:00;95769.19;;;18.32;56.32
36192;BME280;22233;42.708;23.360;2023-05-09T10:04:30;95764.47;;;18.49;55.64
36192;BME280;22233;42.708;23.360;2023-05-09T10:06:58;95747.28;;;18.20;54.33
36192;BME280;22233;42.708;23.360;2023-05-09T10:09:25;95759.16;;;18.24;55.00
36192;BME280;22233;42.708;23.360;2023-05-09T10:11:52;95740.06;;;18.00;54.75
36192;BME280;22233;42.708;23.360;2023-05-09T10:14:19;95755.53;;;18.20;55.10
36192;BME280;22233;42.708;23.360;2023-05-09T10:16:50;95747.34;;;18.08;55.12
36192;BME280;22233;42.708;23.360;2023-05-09T10:19:20;95750.44;;;18.06;55.42
36192;BME280;22233;42.708;23.360;2023-05-09T10:21:49;95738.19;;;17.88;55.44
36192;BME280;22233;42.708;23.360;2023-05-09T10:24:18;95744.97;;;17.78;56.17
36192;BME280;22233;42.708;23.360;2023-05-09T10:26:48;95753.06;;;17.58;56.31
36192;BME280;22233;42.708;23.360;2023-05-09T10:29:13;95760.44;;;17.70;56.00
36192;BME280;22233;42.708;23.360;2023-05-09T10:31:45;95745.97;;;17.57;56.91
36192;BME280;22233;42.708;23.360;2023-05-09T10:34:11;95727.41;;;17.67;56.28
36192;BME280;22233;42.708;23.360;2023-05-09T10:36:37;95749.84;;;17.69;56.56
36192;BME280;22233;42.708;23.360;2023-05-09T10:39:03;95752.38;;;17.62;56.37
36192;BME280;22233;42.708;23.360;2023-05-09T10:41:29;95738.97;;;17.60;57.02
36192;BME280;22233;42.708;23.360;2023-05-09T10:43:57;95743.06;;;17.38;56.50
36192;BME280;22233;42.708;23.360;2023-05-09T10:46:23;95728.69;;;17.29;57.59
36192;BME280;22233;42.708;23.360;2023-05-09T10:48:49;95737.63;;;17.26;58.27
36192;BME280;22233;42.708;23.360;2023-05-09T10:51:16;95718.34;;;17.38;56.89
36192;BME280;22233;42.708;23.360;2023-05-09T10:53:48;95745.53;;;17.55;57.25
36192;BME280;22233;42.708;23.360;2023-05-09T10:56:23;95755.22;;;17.65;56.58
36192;BME280;22233;42.708;23.360;2023-05-09T10:58:50;95749.00;;;17.40;56.51
36192;BME280;22233;42.708;23.360;2023-05-09T11:01:27;95745.81;;;16.97;58.15
36192;BME280;22233;42.708;23.360;2023-05-09T11:03:56;95754.13;;;17.13;57.82
36192;BME280;22233;42.708;23.360;2023-05-09T11:06:43;95757.59;;;17.10;57.48
36192;BME280;22233;42.708;23.360;2023-05-09T11:09:35;95755.75;;;17.14;57.15
36192;BME280;22233;42.708;23.360;2023-05-09T11:12:13;95745.25;;;17.32;57.80
36192;BME280;22233;42.708;23.360;2023-05-09T11:14:46;95748.66;;;17.01;57.78
36192;BME280;22233;42.708;23.360;2023-05-09T11:17:14;95753.03;;;16.53;58.94
36192;BME280;22233;42.708;23.360;2023-05-09T11:22:30;95741.69;;;16.91;58.69
36192;BME280;22233;42.708;23.360;2023-05-09T11:25:09;95740.06;;;16.78;58.30
36192;BME280;22233;42.708;23.360;2023-05-09T11:30:06;95766.75;;;16.90;57.63
36192;BME280;22233;42.708;23.360;2023-05-09T11:32:43;95747.97;;;16.80;58.33
36192;BME280;22233;42.708;23.360;2023-05-09T11:35:10;95756.22;;;16.92;57.80
36192;BME280;22233;42.708;23.360;2023-05-09T11:38:00;95747.53;;;16.77;58.44
36192;BME280;22233;42.708;23.360;2023-05-09T11:40:27;95755.75;;;16.77;58.98
36192;BME280;22233;42.708;23.360;2023-05-09T11:42:55;95752.31;;;16.81;58.69
36192;BME280;22233;42.708;23.360;2023-05-09T11:45:22;95742.19;;;16.81;58.51
36192;BME280;22233;42.708;23.360;2023-05-09T11:47:49;95746.06;;;16.92;58.99
36192;BME280;22233;42.708;23.360;2023-05-09T11:50:16;95758.16;;;17.04;57.50
36192;BME280;22233;42.708;23.360;2023-05-09T11:52:44;95754.38;;;16.96;57.27
36192;BME280;22233;42.708;23.360;2023-05-09T11:55:11;95740.66;;;16.71;58.10
36192;BME280;22233;42.708;23.360;2023-05-09T11:57:41;95750.13;;;17.11;57.63
36192;BME280;22233;42.708;23.360;2023-05-09T12:00:09;95751.97;;;17.07;57.05
36192;BME280;22233;42.708;23.360;2023-05-09T12:02:35;95749.06;;;17.28;57.08
36192;BME280;22233;42.708;23.360;2023-05-09T12:05:15;95753.97;;;17.22;56.99
36192;BME280;22233;42.708;23.360;2023-05-09T12:07:41;95736.25;;;17.20;57.08
36192;BME280;22233;42.708;23.360;2023-05-09T12:10:08;95733.44;;;17.04;56.97
36192;BME280;22233;42.708;23.360;2023-05-09T12:12:45;95752.78;;;17.07;58.37
36192;BME280;22233;42.708;23.360;2023-05-09T12:15:11;95750.81;;;17.08;58.29
36192;BME280;22233;42.708;23.360;2023-05-09T12:17:38;95736.09;;;16.75;58.17
36192;BME280;22233;42.708;23.360;2023-05-09T12:20:04;95746.28;;;16.87;57.53
36192;BME280;22233;42.708;23.360;2023-05-09T12:22:30;95761.47;;;16.72;57.72
36192;BME280;22233;42.708;23.360;2023-05-09T12:24:59;95756.81;;;16.48;58.80
36192;BME280;22233;42.708;23.360;2023-05-09T12:27:26;95750.28;;;16.28;58.54
36192;BME280;22233;42.708;23.360;2023-05-09T12:29:53;95756.69;;;16.45;59.95
36192;BME280;22233;42.708;23.360;2023-05-09T12:32:19;95758.97;;;16.30;59.80
36192;BME280;22233;42.708;23.360;2023-05-09T12:34:45;95752.72;;;15.96;60.42
36192;BME280;22233;42.708;23.360;2023-05-09T12:37:15;95744.75;;;15.70;61.02
36192;BME280;22233;42.708;23.360;2023-05-09T12:40:01;95756.72;;;15.99;60.95
36192;BME280;22233;42.708;23.360;2023-05-09T12:42:29;95750.88;;;15.34;61.95
36192;BME280;22233;42.708;23.360;2023-05-09T12:44:55;95750.44;;;15.32;61.85
36192;BME280;22233;42.708;23.360;2023-05-09T12:47:20;95749.22;;;15.42;62.25
36192;BME280;22233;42.708;23.360;2023-05-09T12:49:49;95731.59;;;15.51;61.93
36192;BME280;22233;42.708;23.360;2023-05-09T12:52:17;95730.63;;;15.47;61.42
36192;BME280;22233;42.708;23.360;2023-05-09T12:54:46;95738.22;;;15.08;62.57
36192;BME280;22233;42.708;23.360;2023-05-09T12:57:20;95744.16;;;15.31;62.29
36192;BME280;22233;42.708;23.360;2023-05-09T12:59:47;95740.63;;;15.10;62.83